createdAt,value
2018-12-02T00:02:00.589Z,45.57
2018-12-02T00:04:30.104Z,47.90
2018-12-02T00:06:59.593Z,46.63
2018-12-02T00:09:29.127Z,45.63
2018-12-02T00:11:58.648Z,46.53
2018-12-02T00:14:28.234Z,46.00
2018-12-02T00:16:57.756Z,46.87
2018-12-02T00:19:27.313Z,46.07
2018-12-02T00:21:56.874Z,45.67
2018-12-02T00:24:26.409Z,46.17
2018-12-02T00:26:55.972Z,45.33
2018-12-02T00:29:25.576Z,46.10
2018-12-02T00:31:55.078Z,46.73
2018-12-02T00:34:24.636Z,45.87
2018-12-02T00:36:54.125Z,46.07
2018-12-02T00:39:23.649Z,46.40
2018-12-02T00:41:53.176Z,43.77
2018-12-02T00:44:22.694Z,44.63
2018-12-02T00:46:52.208Z,47.23
2018-12-02T00:49:21.700Z,44.63
2018-12-02T00:51:51.256Z,46.13
2018-12-02T00:54:20.749Z,44.43
2018-12-02T00:56:50.269Z,45.23
2018-12-02T00:59:19.793Z,43.70
2018-12-02T01:01:49.359Z,42.90
2018-12-02T01:04:18.931Z,41.50
2018-12-02T01:06:53.418Z,42.50
2018-12-02T01:09:17.945Z,42.10
2018-12-02T01:11:47.484Z,43.87
2018-12-02T01:14:17.005Z,43.70
2018-12-02T01:16:46.550Z,44.33
2018-12-02T01:19:16.034Z,41.67
2018-12-02T01:21:45.541Z,42.60
2018-12-02T01:24:15.058Z,40.80
2018-12-02T01:26:44.590Z,41.67
2018-12-02T01:29:14.081Z,44.70
2018-12-02T01:31:43.602Z,43.57
2018-12-02T01:34:13.093Z,42.73
2018-12-02T01:36:42.624Z,43.33
2018-12-02T01:39:12.128Z,41.73
2018-12-02T01:41:41.653Z,43.03
2018-12-02T01:44:11.140Z,41.77
2018-12-02T01:46:40.677Z,41.80
2018-12-02T01:49:10.213Z,41.70
2018-12-02T01:51:39.745Z,45.53
2018-12-02T01:54:09.278Z,44.40
2018-12-02T01:56:38.760Z,41.23
2018-12-02T01:59:08.306Z,43.67
2018-12-02T02:01:37.806Z,42.63
2018-12-02T02:04:07.358Z,44.47
2018-12-02T02:06:36.873Z,44.50
2018-12-02T02:09:09.261Z,47.70
2018-12-02T02:11:39.107Z,46.77
2018-12-02T02:14:08.645Z,47.63
2018-12-02T02:16:38.181Z,50.73
2018-12-02T02:19:07.701Z,44.73
2018-12-02T02:21:37.220Z,43.73
2018-12-02T02:24:07.042Z,44.47
2018-12-02T02:26:36.610Z,45.70
2018-12-02T02:29:06.472Z,43.40
2018-12-02T02:31:36.014Z,46.80
2018-12-02T02:34:05.887Z,46.00
2018-12-02T02:36:35.381Z,48.03
2018-12-02T02:39:06.426Z,46.20
2018-12-02T02:41:35.963Z,47.27
2018-12-02T02:44:05.649Z,45.27
2018-12-02T02:46:35.112Z,44.63
2018-12-02T02:49:04.705Z,44.33
2018-12-02T02:51:34.193Z,46.40
2018-12-02T02:54:03.700Z,48.43
2018-12-02T02:56:33.184Z,46.23
2018-12-02T02:59:02.832Z,47.10
2018-12-02T03:01:32.317Z,44.73
2018-12-02T03:04:01.876Z,44.13
2018-12-02T03:06:31.368Z,44.70
2018-12-02T03:09:00.897Z,47.93
2018-12-02T03:11:30.431Z,46.10
2018-12-02T03:13:59.934Z,47.70
2018-12-02T03:16:29.452Z,45.63
2018-12-02T03:18:58.930Z,45.90
2018-12-02T03:21:28.472Z,49.03
2018-12-02T03:23:57.978Z,49.20
2018-12-02T03:26:27.514Z,47.93
2018-12-02T03:28:56.989Z,46.60
2018-12-02T03:31:26.533Z,45.87
2018-12-02T03:33:56.023Z,47.53
2018-12-02T03:36:25.546Z,44.63
2018-12-02T03:38:55.097Z,45.70
2018-12-02T03:41:24.605Z,45.03
2018-12-02T03:43:54.133Z,43.90
2018-12-02T03:46:23.651Z,45.13
2018-12-02T03:48:53.162Z,46.23
2018-12-02T03:51:22.779Z,46.77
2018-12-02T03:53:52.293Z,45.10
2018-12-02T03:56:21.811Z,44.20
2018-12-02T03:58:51.336Z,43.70
2018-12-02T04:01:20.869Z,44.07
2018-12-02T04:03:50.374Z,43.50
2018-12-02T04:06:19.921Z,43.77
2018-12-02T04:08:49.419Z,42.73
2018-12-02T04:11:18.953Z,41.03
2018-12-02T04:13:48.445Z,40.63
2018-12-02T04:16:17.990Z,42.60
2018-12-02T04:18:47.493Z,43.60
2018-12-02T04:21:17.047Z,43.60
2018-12-02T04:23:46.536Z,41.43
2018-12-02T04:26:16.150Z,45.00
2018-12-02T04:28:45.633Z,42.43
2018-12-02T04:31:15.148Z,42.50
2018-12-02T04:33:44.661Z,43.17
2018-12-02T04:36:14.153Z,41.60
2018-12-02T04:38:43.721Z,41.47
2018-12-02T04:41:13.226Z,41.10
2018-12-02T04:43:42.754Z,42.40
2018-12-02T04:46:12.286Z,43.33
2018-12-02T04:48:41.846Z,41.43
2018-12-02T04:51:11.373Z,42.73
2018-12-02T04:53:40.897Z,40.93
2018-12-02T04:56:10.410Z,41.33
2018-12-02T04:58:39.909Z,44.60
2018-12-02T05:01:09.437Z,41.17
2018-12-02T05:03:38.959Z,42.03
2018-12-02T05:06:08.468Z,40.63
2018-12-02T05:08:38.011Z,43.67
2018-12-02T05:11:07.500Z,41.17
2018-12-02T05:13:37.016Z,42.17
2018-12-02T05:16:06.558Z,39.70
2018-12-02T05:18:36.079Z,40.97
2018-12-02T05:21:05.732Z,41.20
2018-12-02T05:23:35.238Z,45.83
2018-12-02T05:26:04.765Z,46.83
2018-12-02T05:28:34.344Z,48.43
2018-12-02T05:31:03.885Z,46.67
2018-12-02T05:33:33.418Z,44.60
2018-12-02T05:36:02.915Z,43.67
2018-12-02T05:38:32.429Z,41.23
2018-12-02T05:41:01.954Z,44.40
2018-12-02T05:43:31.494Z,43.03
2018-12-02T05:46:00.977Z,43.87
2018-12-02T05:48:30.540Z,45.47
2018-12-02T05:51:00.008Z,47.60
2018-12-02T05:53:29.521Z,51.93
2018-12-02T05:55:59.035Z,53.07
2018-12-02T05:58:28.602Z,54.10
2018-12-02T06:00:58.101Z,55.70
2018-12-02T06:03:27.677Z,54.07
2018-12-02T06:05:57.169Z,57.00
2018-12-02T06:08:26.706Z,57.57
2018-12-02T06:10:56.201Z,61.27
2018-12-02T06:13:25.718Z,65.77
2018-12-02T06:15:55.316Z,64.80
2018-12-02T06:18:24.784Z,66.37
2018-12-02T06:20:54.680Z,60.37
2018-12-02T06:23:23.859Z,61.50
2018-12-02T06:25:53.411Z,64.37
2018-12-02T06:28:22.907Z,69.23
2018-12-02T06:30:52.444Z,68.83
2018-12-02T06:33:21.983Z,72.70
2018-12-02T06:35:51.572Z,72.20
2018-12-02T06:38:21.130Z,67.13
2018-12-02T06:40:50.672Z,67.60
2018-12-02T06:43:20.157Z,67.83
2018-12-02T06:45:49.681Z,62.53
2018-12-02T06:48:19.286Z,65.67
2018-12-02T06:50:48.760Z,63.30
2018-12-02T06:53:18.317Z,61.27
2018-12-02T06:58:55.956Z,62.07
2018-12-02T07:02:10.520Z,64.73
2018-12-02T07:04:41.713Z,63.87
2018-12-02T07:07:11.280Z,65.53
2018-12-02T07:09:40.785Z,70.17
2018-12-02T07:12:10.725Z,67.23
2018-12-02T07:14:40.228Z,68.50
2018-12-02T07:17:09.744Z,65.77
2018-12-02T07:19:44.057Z,63.20
2018-12-02T07:22:19.118Z,64.23
2018-12-02T07:24:50.693Z,67.47
2018-12-02T07:27:20.252Z,70.23
2018-12-02T07:29:49.797Z,69.83
2018-12-02T07:32:19.365Z,67.63
2018-12-02T07:34:48.849Z,71.97
2018-12-02T07:37:19.821Z,72.43
2018-12-02T07:39:57.277Z,72.10
2018-12-02T07:42:26.805Z,72.03
2018-12-02T07:44:56.330Z,65.93
2018-12-02T07:47:25.813Z,65.90
2018-12-02T07:49:55.329Z,63.13
2018-12-02T07:52:24.810Z,66.00
2018-12-02T07:54:54.337Z,63.53
2018-12-02T07:57:23.856Z,63.07
2018-12-02T07:59:53.333Z,65.07
2018-12-02T08:02:22.863Z,66.03
2018-12-02T08:04:52.340Z,67.50
2018-12-02T08:07:21.854Z,69.97
2018-12-02T08:09:51.393Z,71.07
2018-12-02T08:12:20.932Z,78.13
2018-12-02T08:14:50.455Z,80.10
2018-12-02T08:17:19.992Z,76.00
2018-12-02T08:19:49.488Z,81.47
2018-12-02T08:22:19.141Z,80.13
2018-12-02T08:24:48.641Z,80.37
2018-12-02T08:27:18.170Z,80.67
2018-12-02T08:29:47.722Z,82.93
2018-12-02T08:32:17.236Z,82.77
2018-12-02T08:34:46.763Z,84.10
2018-12-02T08:37:16.267Z,86.20
2018-12-02T08:39:45.813Z,85.97
2018-12-02T08:42:15.322Z,86.83
2018-12-02T08:44:44.861Z,93.67
2018-12-02T08:47:14.360Z,92.43
2018-12-02T08:49:43.935Z,88.97
2018-12-02T08:52:13.477Z,89.97
2018-12-02T08:54:42.998Z,86.33
2018-12-02T08:57:12.561Z,90.50
2018-12-02T08:59:42.113Z,85.53
2018-12-02T09:02:11.648Z,89.43
2018-12-02T09:04:41.146Z,82.70
2018-12-02T09:07:10.682Z,83.23
2018-12-02T09:09:40.193Z,83.00
2018-12-02T09:12:09.742Z,83.50
2018-12-02T09:14:39.317Z,80.73
2018-12-02T09:17:08.888Z,91.20
2018-12-02T09:19:38.437Z,85.27
2018-12-02T09:22:07.961Z,81.17
2018-12-02T09:24:37.507Z,87.20
2018-12-02T09:27:07.088Z,84.97
2018-12-02T09:29:36.580Z,86.73
2018-12-02T09:32:06.542Z,86.87
2018-12-02T09:34:36.060Z,82.73
2018-12-02T09:37:05.600Z,80.93
2018-12-02T09:39:35.102Z,76.07
2018-12-02T09:42:04.741Z,71.57
2018-12-02T09:44:34.301Z,76.57
2018-12-02T09:47:03.843Z,75.80
2018-12-02T09:49:33.395Z,79.43
2018-12-02T09:52:02.917Z,84.07
2018-12-02T09:54:32.469Z,74.83
2018-12-02T09:57:01.957Z,73.63
2018-12-02T09:59:31.509Z,76.63
2018-12-02T10:02:01.032Z,72.90
2018-12-02T10:04:30.612Z,76.57
2018-12-02T10:07:00.152Z,73.50
2018-12-02T10:09:29.646Z,73.37
2018-12-02T10:11:59.172Z,72.47
2018-12-02T10:14:28.689Z,72.37
2018-12-02T10:16:58.181Z,62.43
2018-12-02T10:19:27.719Z,60.23
2018-12-02T10:21:57.325Z,66.27
2018-12-02T10:24:26.801Z,70.13
2018-12-02T10:26:56.353Z,65.90
2018-12-02T10:29:25.841Z,62.53
2018-12-02T10:31:55.458Z,61.63
2018-12-02T10:34:25.046Z,57.27
2018-12-02T10:36:54.557Z,59.83
2018-12-02T10:39:24.104Z,57.57
2018-12-02T10:41:53.605Z,54.50
2018-12-02T10:44:23.201Z,53.10
2018-12-02T10:46:52.729Z,55.10
2018-12-02T10:49:22.253Z,54.37
2018-12-02T10:51:51.841Z,51.97
2018-12-02T10:54:21.358Z,52.13
2018-12-02T10:56:50.970Z,51.83
2018-12-02T10:59:20.517Z,52.00
2018-12-02T11:01:54.124Z,49.43
2018-12-02T11:04:23.614Z,48.73
2018-12-02T11:06:53.153Z,48.00
2018-12-02T11:09:22.641Z,53.37
2018-12-02T11:11:52.170Z,52.07
2018-12-02T11:14:21.657Z,49.03
2018-12-02T11:16:51.190Z,47.03
2018-12-02T11:19:20.672Z,49.13
2018-12-02T11:21:50.213Z,47.73
2018-12-02T11:24:19.692Z,50.43
2018-12-02T11:26:49.248Z,49.37
2018-12-02T11:29:18.814Z,49.13
2018-12-02T11:31:48.381Z,49.57
2018-12-02T11:34:17.877Z,58.20
2018-12-02T11:36:47.413Z,57.70
2018-12-02T11:39:16.889Z,50.90
2018-12-02T11:41:46.360Z,50.50
2018-12-02T11:44:15.844Z,49.70
2018-12-02T11:46:45.375Z,51.60
2018-12-02T11:49:14.910Z,50.50
2018-12-02T11:51:44.454Z,53.33
2018-12-02T11:54:14.001Z,52.90
2018-12-02T11:56:43.508Z,45.07
2018-12-02T11:59:13.081Z,48.50
2018-12-02T12:01:42.560Z,49.40
2018-12-02T12:04:12.078Z,48.07
2018-12-02T12:06:41.621Z,48.27
2018-12-02T12:09:11.182Z,46.57
2018-12-02T12:11:40.685Z,47.00
2018-12-02T12:14:10.234Z,46.40
2018-12-02T12:16:39.720Z,44.00
2018-12-02T12:19:09.252Z,41.50
2018-12-02T12:21:38.740Z,39.60
2018-12-02T12:24:08.299Z,40.30
2018-12-02T12:26:37.780Z,37.23
2018-12-02T12:29:07.313Z,42.47
2018-12-02T12:31:36.814Z,41.67
2018-12-02T12:34:06.430Z,41.53
2018-12-02T12:36:35.918Z,40.57
2018-12-02T12:39:07.917Z,42.10
2018-12-02T12:41:37.456Z,41.00
2018-12-02T12:44:09.777Z,46.00
2018-12-02T12:46:39.281Z,45.43
2018-12-02T12:49:08.769Z,44.83
2018-12-02T12:51:39.900Z,45.93
2018-12-02T12:54:07.809Z,42.87
2018-12-02T12:56:37.334Z,44.33
2018-12-02T12:59:06.883Z,42.33
2018-12-02T13:01:36.410Z,44.00
2018-12-02T13:04:06.169Z,46.73
2018-12-02T13:06:35.700Z,45.60
2018-12-02T13:09:08.590Z,44.00
2018-12-02T13:11:38.170Z,44.87
2018-12-02T13:14:07.710Z,42.90
2018-12-02T13:16:37.333Z,42.97
2018-12-02T13:19:06.856Z,42.20
2018-12-02T13:21:36.462Z,43.77
2018-12-02T13:24:06.121Z,43.30
2018-12-02T13:26:35.680Z,49.27
2018-12-02T13:29:05.181Z,47.87
2018-12-02T13:31:34.704Z,48.27
2018-12-02T13:34:04.262Z,50.00
2018-12-02T13:36:33.804Z,50.03
2018-12-02T13:39:03.841Z,49.33
2018-12-02T13:41:33.380Z,48.83
2018-12-02T13:44:02.893Z,50.07
2018-12-02T13:46:32.386Z,50.87
2018-12-02T13:49:01.921Z,57.63
2018-12-02T13:51:31.505Z,54.43
2018-12-02T13:54:06.136Z,51.13
2018-12-02T13:56:35.664Z,53.00
2018-12-02T13:59:05.208Z,50.57
2018-12-02T14:01:34.737Z,48.77
2018-12-02T14:04:04.261Z,41.93
2018-12-02T14:06:33.797Z,42.33
2018-12-02T14:09:03.499Z,53.07
2018-12-02T14:11:32.993Z,42.63
2018-12-02T14:14:02.825Z,40.57
2018-12-02T14:17:06.866Z,42.23
2018-12-02T14:19:36.696Z,43.97
2018-12-02T14:22:06.565Z,46.87
2018-12-02T14:24:36.088Z,49.20
2018-12-02T14:27:06.053Z,55.90
2018-12-02T14:29:37.806Z,49.53
2018-12-02T14:32:10.640Z,49.73
2018-12-02T14:34:40.228Z,49.10
2018-12-02T14:37:09.721Z,50.23
2018-12-02T14:39:39.249Z,52.90
2018-12-02T14:42:08.784Z,52.63
2018-12-02T14:44:38.252Z,50.23
2018-12-02T14:47:07.880Z,56.47
2018-12-02T14:49:37.807Z,57.03
2018-12-02T14:52:07.518Z,59.50
2018-12-02T14:54:37.006Z,55.87
2018-12-02T14:57:06.629Z,58.60
2018-12-02T14:59:36.105Z,62.03
2018-12-02T15:02:06.036Z,59.70
2018-12-02T15:04:35.513Z,61.57
2018-12-02T15:07:05.210Z,59.80
2018-12-02T15:09:34.712Z,59.10
2018-12-02T15:12:04.293Z,99.97
2018-12-02T15:14:33.816Z,82.57
2018-12-02T15:17:03.364Z,90.40
2018-12-02T15:19:32.883Z,89.03
2018-12-02T15:22:02.446Z,72.37
2018-12-02T15:24:31.985Z,65.27
2018-12-02T15:27:01.563Z,66.50
2018-12-02T15:29:31.064Z,96.30
2018-12-02T15:32:00.636Z,146.13
2018-12-02T15:34:30.137Z,112.90
2018-12-02T15:36:59.693Z,108.27
2018-12-02T15:39:29.214Z,112.23
2018-12-02T15:41:58.758Z,110.10
2018-12-02T15:44:28.261Z,90.27
2018-12-02T15:46:57.856Z,85.60
2018-12-02T15:49:27.388Z,90.50
2018-12-02T15:51:56.893Z,84.43
2018-12-02T15:54:26.447Z,85.47
2018-12-02T15:56:55.949Z,79.57
2018-12-02T15:59:25.485Z,75.13
2018-12-02T16:01:55.053Z,83.20
2018-12-02T16:04:24.547Z,73.53
2018-12-02T16:06:54.113Z,74.17
2018-12-02T16:09:23.653Z,65.87
2018-12-02T16:11:53.232Z,63.87
2018-12-02T16:14:22.724Z,63.87
2018-12-02T16:16:52.967Z,61.80
2018-12-02T16:19:21.853Z,64.73
2018-12-02T16:21:51.356Z,65.60
2018-12-02T16:24:20.873Z,62.93
2018-12-02T16:26:50.357Z,62.87
2018-12-02T16:29:19.897Z,62.93
2018-12-02T16:31:49.401Z,61.20
2018-12-02T16:34:18.929Z,60.07
2018-12-02T16:36:48.424Z,58.73
2018-12-02T16:39:17.980Z,58.80
2018-12-02T16:41:47.505Z,62.23
2018-12-02T16:44:17.008Z,61.77
2018-12-02T16:46:46.554Z,62.33
2018-12-02T16:49:16.046Z,66.37
2018-12-02T16:51:45.568Z,64.50
2018-12-02T16:54:15.078Z,60.27
2018-12-02T16:56:44.629Z,64.17
2018-12-02T16:59:18.369Z,59.53
2018-12-02T17:02:05.324Z,61.93
2018-12-02T17:04:33.866Z,62.60
2018-12-02T17:07:03.382Z,60.07
2018-12-02T17:09:32.904Z,60.60
2018-12-02T17:12:02.482Z,62.20
2018-12-02T17:14:32.036Z,59.07
2018-12-02T17:17:01.528Z,62.33
2018-12-02T17:19:31.068Z,61.93
2018-12-02T17:22:00.590Z,62.57
2018-12-02T17:24:30.183Z,62.40
2018-12-02T17:26:59.680Z,65.67
2018-12-02T17:29:29.248Z,61.50
2018-12-02T17:32:03.069Z,61.63
2018-12-02T17:34:32.645Z,61.40
2018-12-02T17:37:02.137Z,61.50
2018-12-02T17:39:33.205Z,63.30
2018-12-02T17:42:08.233Z,62.83
2018-12-02T17:44:37.785Z,64.03
2018-12-02T17:47:07.609Z,65.37
2018-12-02T17:49:37.245Z,62.33
2018-12-02T17:52:07.859Z,62.63
2018-12-02T17:54:37.407Z,61.90
2018-12-02T17:57:06.925Z,66.50
2018-12-02T17:59:36.447Z,66.90
2018-12-02T18:02:06.409Z,63.93
2018-12-02T18:04:35.949Z,64.97
2018-12-02T18:07:05.946Z,62.70
2018-12-02T18:09:35.489Z,63.57
2018-12-02T18:12:05.122Z,65.47
2018-12-02T18:14:34.613Z,65.87
2018-12-02T18:17:04.197Z,65.00
2018-12-02T18:19:33.759Z,68.40
2018-12-02T18:22:03.252Z,69.27
2018-12-02T18:24:32.750Z,69.33
2018-12-02T18:27:02.281Z,69.13
2018-12-02T18:29:31.854Z,74.13
2018-12-02T18:32:01.373Z,69.97
2018-12-02T18:34:32.772Z,69.40
2018-12-02T18:37:02.260Z,70.87
2018-12-02T18:39:31.809Z,70.53
2018-12-02T18:42:01.396Z,73.97
2018-12-02T18:44:30.888Z,74.10
2018-12-02T18:47:00.433Z,75.83
2018-12-02T18:49:29.961Z,72.43
2018-12-02T18:51:59.540Z,74.23
2018-12-02T18:54:29.069Z,80.57
2018-12-02T18:56:58.609Z,78.17
2018-12-02T18:59:28.133Z,79.63
2018-12-02T19:01:57.639Z,83.93
2018-12-02T19:04:27.287Z,85.83
2018-12-02T19:07:07.818Z,82.63
2018-12-02T19:09:26.397Z,90.60
2018-12-02T19:11:55.917Z,90.30
2018-12-02T19:14:25.469Z,87.73
2018-12-02T19:16:54.966Z,90.90
2018-12-02T19:19:24.493Z,87.00
2018-12-02T19:21:54.039Z,85.97
2018-12-02T19:24:23.560Z,86.80
2018-12-02T19:26:53.097Z,91.73
2018-12-02T19:29:22.617Z,86.87
2018-12-02T19:31:52.112Z,91.60
2018-12-02T19:34:21.668Z,89.77
2018-12-02T19:36:55.718Z,88.77
2018-12-02T19:39:25.248Z,91.90
2018-12-02T19:41:54.776Z,86.90
2018-12-02T19:44:24.298Z,91.20
2018-12-02T19:46:53.842Z,96.03
2018-12-02T19:49:23.337Z,101.30
2018-12-02T19:51:52.937Z,100.50
2018-12-02T19:54:22.453Z,97.23
2018-12-02T19:56:51.995Z,93.70
2018-12-02T19:59:21.492Z,102.27
2018-12-02T20:01:51.006Z,97.90
2018-12-02T20:04:20.490Z,100.30
2018-12-02T20:06:50.035Z,104.13
2018-12-02T20:09:19.602Z,102.47
2018-12-02T20:11:49.210Z,103.10
2018-12-02T20:14:18.790Z,107.03
2018-12-02T20:16:48.272Z,109.83
2018-12-02T20:19:23.023Z,110.93
2018-12-02T20:21:52.524Z,117.37
2018-12-02T20:24:27.070Z,111.30
2018-12-02T20:26:56.565Z,113.03
2018-12-02T20:29:26.083Z,116.00
2018-12-02T20:31:55.572Z,115.10
2018-12-02T20:34:25.093Z,113.47
2018-12-02T20:36:54.640Z,115.47
2018-12-02T20:39:24.137Z,117.40
2018-12-02T20:41:53.681Z,111.43
2018-12-02T20:44:23.178Z,110.37
2018-12-02T20:46:52.753Z,108.77
2018-12-02T20:49:22.308Z,108.87
2018-12-02T20:51:51.814Z,109.80
2018-12-02T20:54:21.358Z,108.70
2018-12-02T20:56:50.861Z,111.20
2018-12-02T20:59:20.397Z,105.10
2018-12-02T21:01:49.944Z,109.93
2018-12-02T21:04:19.993Z,112.17
2018-12-02T21:06:49.520Z,108.27
2018-12-02T21:09:19.093Z,106.50
2018-12-02T21:11:48.593Z,120.73
2018-12-02T21:14:18.171Z,122.90
2018-12-02T21:16:47.744Z,124.73
2018-12-02T21:19:17.337Z,123.77
2018-12-02T21:21:46.877Z,123.10
2018-12-02T21:24:16.409Z,119.53
2018-12-02T21:26:45.949Z,124.17
2018-12-02T21:29:15.444Z,116.87
2018-12-02T21:31:44.984Z,111.37
2018-12-02T21:34:14.476Z,111.57
2018-12-02T21:36:44.011Z,114.03
2018-12-02T21:39:13.504Z,112.97
2018-12-02T21:41:43.077Z,112.37
2018-12-02T21:44:12.562Z,108.27
2018-12-02T21:46:42.102Z,105.67
2018-12-02T21:49:11.588Z,98.83
2018-12-02T21:51:41.117Z,99.80
2018-12-02T21:54:10.658Z,97.57
2018-12-02T21:56:40.144Z,98.23
2018-12-02T21:59:09.668Z,94.97
2018-12-02T22:01:39.165Z,97.40
2018-12-02T22:04:08.715Z,92.57
2018-12-02T22:06:38.197Z,95.00
2018-12-02T22:09:08.852Z,90.20
2018-12-02T22:11:38.366Z,81.40
2018-12-02T22:14:07.895Z,86.17
2018-12-02T22:16:37.417Z,87.37
2018-12-02T22:19:06.993Z,85.43
2018-12-02T22:21:36.514Z,91.60
2018-12-02T22:24:06.242Z,90.37
2018-12-02T22:26:35.776Z,85.73
2018-12-02T22:29:05.524Z,87.37
2018-12-02T22:31:35.028Z,86.50
2018-12-02T22:34:04.646Z,86.10
2018-12-02T22:36:34.247Z,96.97
2018-12-02T22:39:04.287Z,98.17
2018-12-02T22:41:33.826Z,102.10
2018-12-02T22:44:03.429Z,95.90
2018-12-02T22:46:32.953Z,97.37
2018-12-02T22:49:02.431Z,98.23
2018-12-02T22:51:31.990Z,92.50
2018-12-02T22:54:01.537Z,92.37
2018-12-02T22:56:31.053Z,94.00
2018-12-02T22:59:00.560Z,102.63
2018-12-02T23:01:35.197Z,104.23
2018-12-02T23:04:04.757Z,107.40
2018-12-02T23:06:34.250Z,102.73
2018-12-02T23:09:04.048Z,99.17
2018-12-02T23:11:33.537Z,102.83
2018-12-02T23:14:03.084Z,102.07
2018-12-02T23:16:32.618Z,100.77
2018-12-02T23:19:02.143Z,100.23
2018-12-02T23:21:31.625Z,109.83
2018-12-02T23:24:01.149Z,119.43
2018-12-02T23:26:30.694Z,113.40
2018-12-02T23:29:00.236Z,111.03
2018-12-02T23:31:29.779Z,109.77
2018-12-02T23:33:59.725Z,107.07
2018-12-02T23:36:28.858Z,106.60
2018-12-02T23:38:58.351Z,113.33
2018-12-02T23:41:27.894Z,114.83
2018-12-02T23:43:57.400Z,111.70
2018-12-02T23:46:26.953Z,109.37
2018-12-02T23:48:56.480Z,111.67
2018-12-02T23:51:26.028Z,110.53
2018-12-02T23:53:55.577Z,109.30
2018-12-02T23:56:25.165Z,104.53
2018-12-02T23:58:54.629Z,102.47
